Observation data for Brownfield on 07/09/2018      Previous  Date  Next       Current Mesonet Observations  Soil Data  Daily Summary Page  Observations in Plain Language
KBWS 090500Z 11004KT 22/17 A3022 RMK A01 T02240166  RH  071%=      5-min Rain = 0
KBWS 090505Z 11004KT 22/17 A3022 RMK A01 T02230165  RH  072%=      5-min Rain = 0
KBWS 090510Z 10003KT 22/17 A3022 RMK A01 T02220165  RH  072%=      5-min Rain = 0
KBWS 090515Z 10003KT 22/16 A3022 RMK A01 T02210164  RH  072%=      5-min Rain = 0
KBWS 090520Z 10003KT 22/16 A3022 RMK A01 T02210164  RH  072%=      5-min Rain = 0
KBWS 090525Z 09003KT 22/16 A3022 RMK A01 T02200164  RH  072%=      5-min Rain = 0
KBWS 090530Z 08005KT 22/17 A3022 RMK A01 T02200165  RH  073%=      5-min Rain = 0
KBWS 090535Z 08005KT 22/17 A3022 RMK A01 T02210167  RH  073%=      5-min Rain = 0
KBWS 090540Z 08004KT 22/17 A3022 RMK A01 T02190166  RH  073%=      5-min Rain = 0
KBWS 090545Z 08004KT 22/17 A3022 RMK A01 T02180166  RH  074%=      5-min Rain = 0
KBWS 090550Z 09004KT 22/17 A3023 RMK A01 T02170167  RH  075%=      5-min Rain = 0
KBWS 090555Z 08005KT 22/17 A3023 RMK A01 T02160168  RH  076%=      5-min Rain = 0
KBWS 090600Z 08004KT 22/17 A3023 RMK A01 T02150168  RH  076%=      5-min Rain = 0
KBWS 090605Z 08004KT 22/17 A3023 RMK A01 T02150168  RH  076%=      5-min Rain = 0
KBWS 090610Z 08004KT 22/17 A3023 RMK A01 T02150167  RH  076%=      5-min Rain = 0
KBWS 090615Z 07004KT 22/17 A3023 RMK A01 T02160167  RH  075%=      5-min Rain = 0
KBWS 090620Z 05004KT 22/17 A3023 RMK A01 T02160167  RH  076%=      5-min Rain = 0
KBWS 090625Z 05005KT 21/17 A3023 RMK A01 T02140165  RH  075%=      5-min Rain = 0
KBWS 090630Z 05004KT 22/17 A3023 RMK A01 T02150165  RH  075%=      5-min Rain = 0
KBWS 090635Z 05004KT 21/16 A3023 RMK A01 T02140164  RH  075%=      5-min Rain = 0
KBWS 090640Z 05004KT 21/16 A3022 RMK A01 T02140163  RH  074%=      5-min Rain = 0
KBWS 090645Z 05004KT 22/16 A3022 RMK A01 T02150162  RH  074%=      5-min Rain = 0
KBWS 090650Z 05004KT 22/16 A3022 RMK A01 T02160162  RH  073%=      5-min Rain = 0
KBWS 090655Z 05005KT 22/16 A3022 RMK A01 T02160160  RH  072%=      5-min Rain = 0
KBWS 090700Z 05004KT 22/16 A3022 RMK A01 T02160160  RH  072%=      5-min Rain = 0
KBWS 090705Z 06005KT 22/16 A3022 RMK A01 T02180161  RH  072%=      5-min Rain = 0
KBWS 090710Z 07005KT 22/16 A3022 RMK A01 T02190161  RH  071%=      5-min Rain = 0
KBWS 090715Z 07005KT 22/16 A3022 RMK A01 T02150160  RH  073%=      5-min Rain = 0
KBWS 090720Z 08005KT 21/16 A3022 RMK A01 T02120160  RH  074%=      5-min Rain = 0
KBWS 090725Z 08005KT 21/16 A3022 RMK A01 T02120159  RH  073%=      5-min Rain = 0
KBWS 090730Z 08005KT 21/16 A3022 RMK A01 T02120159  RH  074%=      5-min Rain = 0
KBWS 090735Z 08005KT 21/16 A3022 RMK A01 T02120159  RH  073%=      5-min Rain = 0
KBWS 090740Z 09005KT 21/16 A3022 RMK A01 T02120159  RH  073%=      5-min Rain = 0
KBWS 090745Z 09005KT 21/16 A3022 RMK A01 T02110159  RH  074%=      5-min Rain = 0
KBWS 090750Z 09004KT 21/16 A3022 RMK A01 T02100158  RH  074%=      5-min Rain = 0
KBWS 090755Z 09004KT 21/16 A3022 RMK A01 T02090159  RH  075%=      5-min Rain = 0
KBWS 090800Z 09004KT 21/16 A3022 RMK A01 T02080158  RH  075%=      5-min Rain = 0
KBWS 090805Z 09004KT 21/16 A3022 RMK A01 T02060159  RH  076%=      5-min Rain = 0
KBWS 090810Z 09004KT 21/16 A3022 RMK A01 T02060159  RH  076%=      5-min Rain = 0
KBWS 090815Z 09004KT 21/16 A3022 RMK A01 T02050160  RH  077%=      5-min Rain = 0
KBWS 090820Z 09004KT 20/16 A3022 RMK A01 T02040160  RH  078%=      5-min Rain = 0
KBWS 090825Z 09005KT 20/16 A3022 RMK A01 T02040161  RH  078%=      5-min Rain = 0
KBWS 090830Z 09005KT 20/16 A3022 RMK A01 T02040160  RH  078%=      5-min Rain = 0
KBWS 090835Z 09005KT 20/16 A3022 RMK A01 T02030160  RH  078%=      5-min Rain = 0
KBWS 090840Z 09005KT 20/16 A3022 RMK A01 T02040160  RH  078%=      5-min Rain = 0
KBWS 090845Z 10005KT 20/16 A3022 RMK A01 T02030161  RH  078%=      5-min Rain = 0
KBWS 090850Z 09004KT 20/16 A3022 RMK A01 T02030161  RH  079%=      5-min Rain = 0
KBWS 090855Z 09004KT 20/16 A3022 RMK A01 T02020161  RH  079%=      5-min Rain = 0
KBWS 090900Z 11004KT 20/16 A3021 RMK A01 T02020161  RH  079%=      5-min Rain = 0
KBWS 090905Z 11004KT 20/16 A3021 RMK A01 T02010161  RH  080%=      5-min Rain = 0
KBWS 090910Z 11003KT 20/16 A3021 RMK A01 T02000161  RH  080%=      5-min Rain = 0
KBWS 090915Z 11003KT 20/16 A3021 RMK A01 T02000161  RH  080%=      5-min Rain = 0
KBWS 090920Z 11003KT 20/16 A3021 RMK A01 T02000161  RH  080%=      5-min Rain = 0
KBWS 090925Z 11003KT 20/16 A3021 RMK A01 T01990161  RH  081%=      5-min Rain = 0
KBWS 090930Z 11003KT 20/16 A3022 RMK A01 T01990162  RH  081%=      5-min Rain = 0
KBWS 090935Z 10004KT 20/16 A3022 RMK A01 T01990162  RH  081%=      5-min Rain = 0
KBWS 090940Z 09005KT 20/16 A3022 RMK A01 T01990162  RH  081%=      5-min Rain = 0
KBWS 090945Z 09005KT 20/16 A3022 RMK A01 T01990162  RH  081%=      5-min Rain = 0
KBWS 090950Z 09005KT 20/16 A3022 RMK A01 T01980163  RH  082%=      5-min Rain = 0
KBWS 090955Z 08005KT 20/16 A3022 RMK A01 T01970163  RH  082%=      5-min Rain = 0
KBWS 091000Z 09005KT 20/16 A3022 RMK A01 T01970163  RH  083%=      5-min Rain = 0
KBWS 091005Z 08005KT 20/16 A3022 RMK A01 T01970163  RH  083%=      5-min Rain = 0
KBWS 091010Z 07004KT 20/17 A3022 RMK A01 T01990165  RH  083%=      5-min Rain = 0
KBWS 091015Z 06004KT 20/17 A3022 RMK A01 T02000165  RH  082%=      5-min Rain = 0
KBWS 091020Z 07003KT 20/17 A3022 RMK A01 T01980165  RH  083%=      5-min Rain = 0
KBWS 091025Z 08003KT 20/17 A3022 RMK A01 T02000165  RH  082%=      5-min Rain = 0
KBWS 091030Z 08003KT 20/16 A3022 RMK A01 T01980164  RH  083%=      5-min Rain = 0
KBWS 091035Z 07002KT 20/17 A3022 RMK A01 T01980165  RH  083%=      5-min Rain = 0
KBWS 091040Z 06003KT 20/17 A3023 RMK A01 T01970165  RH  083%=      5-min Rain = 0
KBWS 091045Z 06003KT 20/16 A3023 RMK A01 T01960164  RH  084%=      5-min Rain = 0
KBWS 091050Z 05003KT 19/16 A3023 RMK A01 T01940164  RH  084%=      5-min Rain = 0
KBWS 091055Z 06003KT 19/16 A3023 RMK A01 T01940164  RH  085%=      5-min Rain = 0
KBWS 091100Z 06002KT 19/16 A3023 RMK A01 T01940164  RH  085%=      5-min Rain = 0
KBWS 091105Z 07004KT 20/17 A3024 RMK A01 T01970166  RH  084%=      5-min Rain = 0
KBWS 091110Z 06004KT 20/17 A3024 RMK A01 T01990166  RH  083%=      5-min Rain = 0
KBWS 091115Z 07003KT 20/17 A3024 RMK A01 T01980166  RH  084%=      5-min Rain = 0
KBWS 091120Z 07003KT 20/17 A3024 RMK A01 T01980165  RH  083%=      5-min Rain = 0
KBWS 091125Z 07003KT 20/17 A3024 RMK A01 T01970165  RH  084%=      5-min Rain = 0
KBWS 091130Z 07003KT 20/17 A3024 RMK A01 T01960165  RH  084%=      5-min Rain = 0
KBWS 091135Z 08003KT 19/16 A3025 RMK A01 T01940164  RH  085%=      5-min Rain = 0
KBWS 091140Z 10002KT 19/16 A3025 RMK A01 T01920163  RH  085%=      5-min Rain = 0
KBWS 091145Z 10002KT 19/16 A3025 RMK A01 T01910163  RH  086%=      5-min Rain = 0
KBWS 091150Z 10002KT 19/16 A3025 RMK A01 T01900163  RH  086%=      5-min Rain = 0
KBWS 091155Z 08002KT 19/16 A3026 RMK A01 T01900163  RH  086%=      5-min Rain = 0
KBWS 091200Z 08002KT 19/16 A3026 RMK A01 T01920163  RH  085%=      5-min Rain = 0
KBWS 091205Z 08002KT 19/16 A3026 RMK A01 T01940163  RH  084%=      5-min Rain = 0
KBWS 091210Z 08002KT 20/17 A3026 RMK A01 T01960165  RH  084%=      5-min Rain = 0
KBWS 091215Z 07002KT 20/17 A3026 RMK A01 T01980166  RH  084%=      5-min Rain = 0
KBWS 091220Z 04002KT 20/17 A3026 RMK A01 T01970165  RH  084%=      5-min Rain = 0
KBWS 091225Z 04003KT 20/17 A3026 RMK A01 T01970166  RH  084%=      5-min Rain = 0
KBWS 091230Z 04003KT 20/17 A3027 RMK A01 T01980166  RH  084%=      5-min Rain = 0
KBWS 091235Z 04004KT 20/17 A3027 RMK A01 T01990167  RH  083%=      5-min Rain = 0
KBWS 091240Z 05004KT 20/17 A3026 RMK A01 T02020169  RH  083%=      5-min Rain = 0
KBWS 091245Z 05003KT 20/17 A3027 RMK A01 T02040169  RH  083%=      5-min Rain = 0
KBWS 091250Z 05004KT 21/17 A3027 RMK A01 T02060171  RH  082%=      5-min Rain = 0
KBWS 091255Z 04003KT 21/17 A3027 RMK A01 T02080171  RH  081%=      5-min Rain = 0
KBWS 091300Z 04003KT 21/17 A3027 RMK A01 T02100171  RH  080%=      5-min Rain = 0
KBWS 091305Z 05003KT 21/17 A3027 RMK A01 T02130172  RH  079%=      5-min Rain = 0
KBWS 091310Z 05004KT 22/17 A3027 RMK A01 T02150171  RH  078%=      5-min Rain = 0
KBWS 091315Z 06003KT 22/17 A3027 RMK A01 T02160171  RH  078%=      5-min Rain = 0
KBWS 091320Z 07002KT 22/17 A3027 RMK A01 T02170170  RH  076%=      5-min Rain = 0
KBWS 091325Z 07002KT 22/17 A3027 RMK A01 T02200171  RH  076%=      5-min Rain = 0
KBWS 091330Z 07002KT 22/17 A3027 RMK A01 T02240172  RH  074%=      5-min Rain = 0
KBWS 091335Z 09002KT 23/17 A3028 RMK A01 T02270173  RH  073%=      5-min Rain = 0
KBWS 091340Z 10002KT 23/17 A3028 RMK A01 T02300173  RH  072%=      5-min Rain = 0
KBWS 091345Z 09002KT 23/17 A3028 RMK A01 T02320173  RH  071%=      5-min Rain = 0
KBWS 091350Z 09002KT 23/17 A3028 RMK A01 T02340172  RH  070%=      5-min Rain = 0
KBWS 091355Z 10003KT 24/17 A3028 RMK A01 T02350170  RH  069%=      5-min Rain = 0
KBWS 091400Z 12003KT 24/17 A3028 RMK A01 T02370169  RH  067%=      5-min Rain = 0
KBWS 091405Z 13003KT 24/17 A3028 RMK A01 T02400167  RH  065%=      5-min Rain = 0
KBWS 091410Z 11003KT 24/17 A3028 RMK A01 T02420167  RH  064%=      5-min Rain = 0
KBWS 091415Z 10003KT 24/17 A3029 RMK A01 T02410167  RH  065%=      5-min Rain = 0
KBWS 091420Z 11002KT 24/16 A3029 RMK A01 T02430164  RH  063%=      5-min Rain = 0
KBWS 091425Z 10002KT 25/17 A3029 RMK A01 T02490165  RH  061%=      5-min Rain = 0
KBWS 091430Z 12002KT 25/16 A3029 RMK A01 T02490164  RH  061%=      5-min Rain = 0
KBWS 091435Z 12002KT 25/17 A3029 RMK A01 T02540167  RH  060%=      5-min Rain = 0
KBWS 091440Z 12003KT 25/17 A3029 RMK A01 T02540166  RH  059%=      5-min Rain = 0
KBWS 091445Z 12003KT 26/16 A3029 RMK A01 T02560164  RH  058%=      5-min Rain = 0
KBWS 091450Z 10003KT 26/16 A3029 RMK A01 T02550163  RH  058%=      5-min Rain = 0
KBWS 091455Z 10001KT 26/16 A3029 RMK A01 T02580163  RH  057%=      5-min Rain = 0
KBWS 091500Z 12002KT 26/16 A3029 RMK A01 T02630163  RH  055%=      5-min Rain = 0
KBWS 091505Z 09002KT 26/16 A3029 RMK A01 T02640162  RH  055%=      5-min Rain = 0
KBWS 091510Z 05005KT 26/16 A3029 RMK A01 T02620164  RH  056%=      5-min Rain = 0
KBWS 091515Z 06006KT 26/16 A3029 RMK A01 T02610164  RH  056%=      5-min Rain = 0
KBWS 091520Z 06005KT 26/16 A3029 RMK A01 T02610163  RH  056%=      5-min Rain = 0
KBWS 091525Z 05003KT 26/16 A3029 RMK A01 T02600162  RH  056%=      5-min Rain = 0
KBWS 091530Z 06005KT 26/16 A3029 RMK A01 T02640162  RH  055%=      5-min Rain = 0
KBWS 091535Z 07004KT 26/16 A3029 RMK A01 T02640162  RH  055%=      5-min Rain = 0
KBWS 091540Z 08006KT 27/16 A3029 RMK A01 T02670162  RH  054%=      5-min Rain = 0
KBWS 091545Z 07004KT 27/16 A3029 RMK A01 T02690162  RH  053%=      5-min Rain = 0
KBWS 091550Z 10006KT 27/16 A3029 RMK A01 T02720160  RH  052%=      5-min Rain = 0
KBWS 091555Z 08004G11KT 27/16 A3029 RMK A01 T02700160  RH  052%=      5-min Rain = 0
KBWS 091600Z 08007KT 27/16 A3028 RMK A01 T02730160  RH  051%=      5-min Rain = 0
KBWS 091605Z 09005KT 27/16 A3028 RMK A01 T02740160  RH  051%=      5-min Rain = 0
KBWS 091610Z 09004G10KT 28/16 A3029 RMK A01 T02780160  RH  050%=      5-min Rain = 0
KBWS 091615Z 08008KT 28/16 A3028 RMK A01 T02790159  RH  049%=      5-min Rain = 0
KBWS 091620Z 10007KT 28/16 A3028 RMK A01 T02790159  RH  049%=      5-min Rain = 0
KBWS 091625Z 11007KT 28/16 A3028 RMK A01 T02790157  RH  049%=      5-min Rain = 0
KBWS 091630Z 09006KT 28/16 A3028 RMK A01 T02820159  RH  048%=      5-min Rain = 0
KBWS 091635Z 11005KT 29/16 A3029 RMK A01 T02890160  RH  047%=      5-min Rain = 0
KBWS 091640Z 13006KT 29/16 A3029 RMK A01 T02900158  RH  046%=      5-min Rain = 0
KBWS 091645Z 10007G12KT 29/16 A3028 RMK A01 T02850157  RH  047%=      5-min Rain = 0
KBWS 091650Z 12008KT 29/16 A3029 RMK A01 T02870157  RH  046%=      5-min Rain = 0
KBWS 091655Z 13009KT 29/16 A3029 RMK A01 T02860155  RH  046%=      5-min Rain = 0
KBWS 091700Z 12007KT 28/15 A3029 RMK A01 T02840154  RH  046%=      5-min Rain = 0
KBWS 091705Z 11006KT 29/16 A3028 RMK A01 T02910156  RH  045%=      5-min Rain = 0
KBWS 091710Z 14009KT 29/15 A3028 RMK A01 T02900154  RH  045%=      5-min Rain = 0
KBWS 091715Z 14007G15KT 29/16 A3028 RMK A01 T02890155  RH  045%=      5-min Rain = 0
KBWS 091720Z 15007KT 29/15 A3028 RMK A01 T02900152  RH  044%=      5-min Rain = 0
KBWS 091725Z 11010G15KT 30/16 A3028 RMK A01 T02950157  RH  044%=      5-min Rain = 0
KBWS 091730Z 10006G13KT 29/16 A3028 RMK A01 T02880155  RH  045%=      5-min Rain = 0
KBWS 091735Z 13008KT 29/15 A3027 RMK A01 T02910151  RH  044%=      5-min Rain = 0
KBWS 091740Z 08007G12KT 30/15 A3027 RMK A01 T02960151  RH  042%=      5-min Rain = 0
KBWS 091745Z 10008KT 29/15 A3027 RMK A01 T02940153  RH  044%=      5-min Rain = 0
KBWS 091750Z 10007KT 29/15 A3027 RMK A01 T02900152  RH  044%=      5-min Rain = 0
KBWS 091755Z 09008KT 29/15 A3027 RMK A01 T02890150  RH  044%=      5-min Rain = 0
KBWS 091800Z 10007G14KT 29/15 A3027 RMK A01 T02900151  RH  044%=      5-min Rain = 0
KBWS 091805Z 12008KT 30/15 A3026 RMK A01 T02960149  RH  042%=      5-min Rain = 0
KBWS 091810Z 10008G13KT 30/15 A3026 RMK A01 T03000151  RH  041%=      5-min Rain = 0
KBWS 091815Z 15007KT 30/15 A3026 RMK A01 T03000148  RH  041%=      5-min Rain = 0
KBWS 091820Z 11008G14KT 30/15 A3026 RMK A01 T02980147  RH  041%=      5-min Rain = 0
KBWS 091825Z 13010G16KT 30/15 A3025 RMK A01 T02960148  RH  041%=      5-min Rain = 0
KBWS 091830Z 13010KT 30/15 A3025 RMK A01 T02950148  RH  042%=      5-min Rain = 0
KBWS 091835Z 13010G15KT 30/15 A3025 RMK A01 T03040146  RH  039%=      5-min Rain = 0
KBWS 091840Z 12010KT 30/15 A3025 RMK A01 T02990146  RH  040%=      5-min Rain = 0
KBWS 091845Z 12011G16KT 31/15 A3024 RMK A01 T03070149  RH  039%=      5-min Rain = 0
KBWS 091850Z 11009G15KT 31/15 A3024 RMK A01 T03050145  RH  039%=      5-min Rain = 0
KBWS 091855Z 12009G15KT 30/14 A3024 RMK A01 T03040144  RH  039%=      5-min Rain = 0
KBWS 091900Z 11008G15KT 30/15 A3024 RMK A01 T03020145  RH  039%=      5-min Rain = 0
KBWS 091905Z 11013KT 30/14 A3024 RMK A01 T03030144  RH  039%=      5-min Rain = 0
KBWS 091910Z 09012G17KT 30/14 A3023 RMK A01 T02970142  RH  040%=      5-min Rain = 0
KBWS 091915Z 08010KT 30/14 A3023 RMK A01 T02980141  RH  039%=      5-min Rain = 0
KBWS 091920Z 09009G15KT 30/14 A3023 RMK A01 T02960140  RH  039%=      5-min Rain = 0
KBWS 091925Z 11008G14KT 30/14 A3023 RMK A01 T02980139  RH  039%=      5-min Rain = 0
KBWS 091930Z 11011G18KT 31/14 A3023 RMK A01 T03100141  RH  036%=      5-min Rain = 0
KBWS 091935Z 10011G18KT 31/14 A3022 RMK A01 T03070141  RH  037%=      5-min Rain = 0
KBWS 091940Z 09009KT 30/14 A3022 RMK A01 T03000138  RH  038%=      5-min Rain = 0
KBWS 091945Z 10006KT 30/14 A3022 RMK A01 T03010138  RH  038%=      5-min Rain = 0
KBWS 091950Z 09011G16KT 31/14 A3022 RMK A01 T03130143  RH  037%=      5-min Rain = 0
KBWS 091955Z 07008G13KT 31/14 A3022 RMK A01 T03090141  RH  037%=      5-min Rain = 0
KBWS 092000Z 11011G16KT 31/14 A3022 RMK A01 T03080141  RH  037%=      5-min Rain = 0
KBWS 092005Z 11007G14KT 31/14 A3022 RMK A01 T03080139  RH  037%=      5-min Rain = 0
KBWS 092010Z 11011G17KT 30/14 A3021 RMK A01 T03040141  RH  038%=      5-min Rain = 0
KBWS 092015Z 13012G17KT 30/15 A3021 RMK A01 T03020150  RH  041%=      5-min Rain = 0
KBWS 092020Z 13015G23KT 31/15 A3021 RMK A01 T03050148  RH  039%=      5-min Rain = 0
KBWS 092025Z 13014G20KT 30/15 A3021 RMK A01 T03030148  RH  040%=      5-min Rain = 0
KBWS 092030Z 14014G20KT 31/15 A3021 RMK A01 T03090149  RH  039%=      5-min Rain = 0
KBWS 092035Z 13014G20KT 32/15 A302 RMK A01 T03160151  RH  038%=      5-min Rain = 0
KBWS 092040Z 10013G18KT 31/15 A302 RMK A01 T03120147  RH  038%=      5-min Rain = 0
KBWS 092045Z 13013G20KT 31/15 A302 RMK A01 T03110146  RH  038%=      5-min Rain = 0
KBWS 092050Z 13013G19KT 31/15 A302 RMK A01 T03110149  RH  038%=      5-min Rain = 0
KBWS 092055Z 13014G20KT 31/15 A302 RMK A01 T03140148  RH  038%=      5-min Rain = 0
KBWS 092100Z 13014G20KT 32/15 A302 RMK A01 T03160150  RH  037%=      5-min Rain = 0
KBWS 092105Z 12013G18KT 32/15 A302 RMK A01 T03160147  RH  037%=      5-min Rain = 0
KBWS 092110Z 13011G17KT 31/14 A302 RMK A01 T03110144  RH  037%=      5-min Rain = 0
KBWS 092115Z 12012G20KT 31/14 A302 RMK A01 T03120144  RH  037%=      5-min Rain = 0
KBWS 092120Z 12011G19KT 31/15 A302 RMK A01 T03110146  RH  038%=      5-min Rain = 0
KBWS 092125Z 12012KT 31/15 A3019 RMK A01 T03090145  RH  038%=      5-min Rain = 0
KBWS 092130Z 13010G18KT 31/14 A302 RMK A01 T03070144  RH  038%=      5-min Rain = 0
KBWS 092135Z 10012G17KT 31/14 A3019 RMK A01 T03050141  RH  038%=      5-min Rain = 0
KBWS 092140Z 10016KT 31/14 A3019 RMK A01 T03050139  RH  037%=      5-min Rain = 0
KBWS 092145Z 10014G19KT 30/14 A3019 RMK A01 T03010139  RH  038%=      5-min Rain = 0
KBWS 092150Z 11012KT 30/14 A3019 RMK A01 T03020137  RH  037%=      5-min Rain = 0
KBWS 092155Z 09010KT 30/13 A3019 RMK A01 T03040134  RH  036%=      5-min Rain = 0
KBWS 092200Z 10011KT 31/14 A3019 RMK A01 T03060135  RH  036%=      5-min Rain = 0
KBWS 092205Z 11012KT 31/14 A3019 RMK A01 T03070136  RH  036%=      5-min Rain = 0
KBWS 092210Z 10010G15KT 31/14 A3019 RMK A01 T03070135  RH  036%=      5-min Rain = 0
KBWS 092215Z 10011KT 31/13 A3019 RMK A01 T03080133  RH  035%=      5-min Rain = 0
KBWS 092220Z 09011KT 31/13 A3019 RMK A01 T03070134  RH  036%=      5-min Rain = 0
KBWS 092225Z 11014G19KT 31/14 A3019 RMK A01 T03060135  RH  036%=      5-min Rain = 0
KBWS 092230Z 12012G17KT 30/13 A3019 RMK A01 T03030133  RH  036%=      5-min Rain = 0
KBWS 092235Z 13015KT 30/13 A3019 RMK A01 T03030133  RH  036%=      5-min Rain = 0
KBWS 092240Z 12014KT 30/14 A3019 RMK A01 T03020135  RH  037%=      5-min Rain = 0
KBWS 092245Z 12013KT 30/13 A3019 RMK A01 T03010132  RH  036%=      5-min Rain = 0
KBWS 092250Z 10011G16KT 30/13 A3019 RMK A01 T03030133  RH  036%=      5-min Rain = 0
KBWS 092255Z 10011KT 30/13 A3019 RMK A01 T03020133  RH  036%=      5-min Rain = 0
KBWS 092300Z 10012G17KT 30/13 A3019 RMK A01 T03020131  RH  036%=      5-min Rain = 0
KBWS 092305Z 12011KT 31/14 A3019 RMK A01 T03050137  RH  036%=      5-min Rain = 0
KBWS 092310Z 13010KT 31/14 A3019 RMK A01 T03060137  RH  036%=      5-min Rain = 0
KBWS 092315Z 12012KT 30/14 A3019 RMK A01 T03030136  RH  037%=      5-min Rain = 0
KBWS 092320Z 13011KT 30/13 A3019 RMK A01 T03030134  RH  036%=      5-min Rain = 0
KBWS 092325Z 12012KT 30/13 A3019 RMK A01 T03030134  RH  036%=      5-min Rain = 0
KBWS 092330Z 12012G17KT 30/13 A3019 RMK A01 T03030134  RH  036%=      5-min Rain = 0
KBWS 092335Z 13012G17KT 30/13 A3019 RMK A01 T03040134  RH  036%=      5-min Rain = 0
KBWS 092340Z 13011G17KT 31/14 A3019 RMK A01 T03050135  RH  036%=      5-min Rain = 0
KBWS 092345Z 14013KT 30/14 A3019 RMK A01 T03040135  RH  036%=      5-min Rain = 0
KBWS 092350Z 15016G24KT 30/14 A3019 RMK A01 T03030142  RH  038%=      5-min Rain = 0
KBWS 092355Z 17021KT 28/16 A3019 RMK A01 T02790164  RH  051%=      5-min Rain = 0
KBWS 100000Z 17020KT 27/16 A3019 RMK A01 T02730164  RH  053%=      5-min Rain = 0
KBWS 100005Z 17018G24KT 27/16 A3019 RMK A01 T02740164  RH  052%=      5-min Rain = 0
KBWS 100010Z 17021KT 27/16 A3019 RMK A01 T02710163  RH  053%=      5-min Rain = 0
KBWS 100015Z 17019G24KT 27/16 A3019 RMK A01 T02660163  RH  054%=      5-min Rain = 0
KBWS 100020Z 17018KT 26/16 A302 RMK A01 T02640162  RH  055%=      5-min Rain = 0
KBWS 100025Z 17017KT 26/16 A302 RMK A01 T02630162  RH  055%=      5-min Rain = 0
KBWS 100030Z 17017KT 26/16 A3021 RMK A01 T02620162  RH  056%=      5-min Rain = 0
KBWS 100035Z 18016KT 26/16 A3021 RMK A01 T02600162  RH  056%=      5-min Rain = 0
KBWS 100040Z 18017KT 26/16 A3021 RMK A01 T02580161  RH  056%=      5-min Rain = 0
KBWS 100045Z 17015KT 26/16 A3021 RMK A01 T02580161  RH  056%=      5-min Rain = 0
KBWS 100050Z 18016KT 26/16 A3021 RMK A01 T02580160  RH  056%=      5-min Rain = 0
KBWS 100055Z 18013G19KT 26/16 A3021 RMK A01 T02570160  RH  056%=      5-min Rain = 0
KBWS 100100Z 18014KT 26/16 A3021 RMK A01 T02560161  RH  057%=      5-min Rain = 0
KBWS 100105Z 18012KT 26/16 A302 RMK A01 T02560160  RH  057%=      5-min Rain = 0
KBWS 100110Z 19011KT 26/16 A302 RMK A01 T02560160  RH  057%=      5-min Rain = 0
KBWS 100115Z 19012KT 26/16 A3021 RMK A01 T02550160  RH  057%=      5-min Rain = 0
KBWS 100120Z 18011KT 25/16 A3021 RMK A01 T02540161  RH  057%=      5-min Rain = 0
KBWS 100125Z 18010KT 25/16 A3021 RMK A01 T02530160  RH  058%=      5-min Rain = 0
KBWS 100130Z 19010KT 25/16 A3022 RMK A01 T02530160  RH  058%=      5-min Rain = 0
KBWS 100135Z 19010KT 25/16 A3022 RMK A01 T02530159  RH  057%=      5-min Rain = 0
KBWS 100140Z 19009KT 25/16 A3022 RMK A01 T02530159  RH  057%=      5-min Rain = 0
KBWS 100145Z 19010KT 25/16 A3022 RMK A01 T02520159  RH  057%=      5-min Rain = 0
KBWS 100150Z 19011KT 25/16 A3023 RMK A01 T02510160  RH  058%=      5-min Rain = 0
KBWS 100155Z 20010KT 25/16 A3023 RMK A01 T02500161  RH  059%=      5-min Rain = 0
KBWS 100200Z 20009KT 25/16 A3023 RMK A01 T02480161  RH  060%=      5-min Rain = 0
KBWS 100205Z 20009KT 25/16 A3023 RMK A01 T02480160  RH  060%=      5-min Rain = 0
KBWS 100210Z 20008KT 25/16 A3023 RMK A01 T02480160  RH  059%=      5-min Rain = 0
KBWS 100215Z 20008KT 25/16 A3023 RMK A01 T02470160  RH  060%=      5-min Rain = 0
KBWS 100220Z 20008KT 25/16 A3023 RMK A01 T02470159  RH  060%=      5-min Rain = 0
KBWS 100225Z 20006KT 25/16 A3023 RMK A01 T02460160  RH  060%=      5-min Rain = 0
KBWS 100230Z 21006KT 25/16 A3023 RMK A01 T02450160  RH  061%=      5-min Rain = 0
KBWS 100235Z 21005KT 24/16 A3023 RMK A01 T02440161  RH  061%=      5-min Rain = 0
KBWS 100240Z 20006KT 24/16 A3023 RMK A01 T02430162  RH  062%=      5-min Rain = 0
KBWS 100245Z 20006KT 24/16 A3023 RMK A01 T02430163  RH  062%=      5-min Rain = 0
KBWS 100250Z 20007KT 24/16 A3024 RMK A01 T02430164  RH  063%=      5-min Rain = 0
KBWS 100255Z 19007KT 24/17 A3024 RMK A01 T02430165  RH  063%=      5-min Rain = 0
KBWS 100300Z 18006KT 24/17 A3024 RMK A01 T02420165  RH  064%=      5-min Rain = 0
KBWS 100305Z 18005KT 24/17 A3024 RMK A01 T02420165  RH  064%=      5-min Rain = 0
KBWS 100310Z 17005KT 24/16 A3024 RMK A01 T02410164  RH  064%=      5-min Rain = 0
KBWS 100315Z 17005KT 24/17 A3025 RMK A01 T02400165  RH  064%=      5-min Rain = 0
KBWS 100320Z 17005KT 24/17 A3025 RMK A01 T02390166  RH  065%=      5-min Rain = 0
KBWS 100325Z 17005KT 24/17 A3025 RMK A01 T02390166  RH  065%=      5-min Rain = 0
KBWS 100330Z 18004KT 24/17 A3025 RMK A01 T02390166  RH  065%=      5-min Rain = 0
KBWS 100335Z 18003KT 24/17 A3025 RMK A01 T02380167  RH  066%=      5-min Rain = 0
KBWS 100340Z 19003KT 24/17 A3025 RMK A01 T02370167  RH  066%=      5-min Rain = 0
KBWS 100345Z 20003KT 24/17 A3025 RMK A01 T02370167  RH  066%=      5-min Rain = 0
KBWS 100350Z 19004KT 24/17 A3025 RMK A01 T02360167  RH  067%=      5-min Rain = 0
KBWS 100355Z 20003KT 24/17 A3025 RMK A01 T02360167  RH  067%=      5-min Rain = 0
KBWS 100400Z 19004KT 24/17 A3025 RMK A01 T02350168  RH  067%=      5-min Rain = 0
KBWS 100405Z 18004KT 24/17 A3025 RMK A01 T02350168  RH  068%=      5-min Rain = 0
KBWS 100410Z 18004KT 23/17 A3025 RMK A01 T02340169  RH  068%=      5-min Rain = 0
KBWS 100415Z 19004KT 23/17 A3025 RMK A01 T02330169  RH  069%=      5-min Rain = 0
KBWS 100420Z 20003KT 23/17 A3025 RMK A01 T02320168  RH  069%=      5-min Rain = 0
KBWS 100425Z 20001KT 23/17 A3025 RMK A01 T02320168  RH  069%=      5-min Rain = 0
KBWS 100430Z 20001KT 23/17 A3025 RMK A01 T02310168  RH  069%=      5-min Rain = 0
KBWS 100435Z 21000KT 23/17 A3025 RMK A01 T02310168  RH  069%=      5-min Rain = 0
KBWS 100440Z 19000KT 23/17 A3025 RMK A01 T02310168  RH  070%=      5-min Rain = 0
KBWS 100445Z 00000KT 23/17 A3025 RMK A01 T02300170  RH  070%=      5-min Rain = 0
KBWS 100450Z 00000KT 23/17 A3025 RMK A01 T02290170  RH  071%=      5-min Rain = 0
KBWS 100455Z 00000KT 23/17 A3025 RMK A01 T02280169  RH  071%=      5-min Rain = 0

Page generated in 0.0092 seconds.